Portada
METAR-TAF:

METAR-TAF

Aeroports :

Katima Mulilo, Namíbia

latitud: 17-38-04S, longitud: 024-10-36E, altitud: 985 m

Observació

L'informe es va fer fa 54 minuts, a les 16:00 UTC
Vent 4 kt del Sud
Temperatura 30°C
Humitat 52%
Pressió 1011 hPa

METAR: FYKM 211600Z AUTO 19004KT //// // ////// 30/19 Q1011

Hora: 18:54 (16:54 UTC)

Pronòstic

L'informe es va fer fa 5 hores i 54 minuts, a les 11:00 UTC
Pronòstic vàlid del 21 a les 11 UTC al 21 a les 21 UTC
Vent 3 kt del Sud
Visibilitat 10 km o més
Escasses núvols a una alçada de 3000 ft
Probabilitat 30% :
Temporalment
l' 21 a les 14 UTC al 21 a les 21 UTC
Escasses núvols a una alçada de 3000 ft, Cumulonimbus.
Núvols disperses a una alçada de 4000 ft
tempesta, pluja

TAF: FYKM 211100Z 2111/2121 17003KT 9999 FEW030 PROB30 TEMPO 2114/2121 -TSRA FEW030CB SCT040

Observacions i pronòstics meteorològics de més de 4000 aeroports (METAR i TAF).

Les estacions disponibles són els punts grocs i vermells al mapa.

Posi el ratolí al punt desitjat per veure el nom de l'estació.

Feu clic per veure les observacions i els pronòstics meteorològics.

Per canviar el mapa: feu clic els botons verds amb una creu de color negre per apropar; al botó verd amb un guió per allunyar la imatge; o en les fletxes verdes per a mapes adjacents.


METAR-TAF: